Time;durP1;ratioP1;P1;durP2;ratioP2;P2;SDS_P1;SDS_P2;PMS_P1;PMS_P2;Temp;Humidity;BMP_temperature;BMP_pressure;BME280_temperature;BME280_humidity;BME280_pressure;Samples;Min_cycle;Max_cycle;Signal;HPM_P1;HPM_P2
2021/12/31 00:00:05;;;;;;;22.07;14.03;;;;;;;2.73;89.13;96138.01;1676938;86;21023;-61
2021/12/31 00:02:34;;;;;;;21.10;13.53;;;;;;;2.81;89.32;96140.77;1676633;86;21035;-62
2021/12/31 00:05:00;;;;;;;24.03;13.63;;;;;;;2.96;89.73;96139.77;1676958;86;21028;-61
2021/12/31 00:07:27;;;;;;;25.97;15.30;;;;;;;3.04;89.23;96147.30;1676727;86;21528;-62
2021/12/31 00:09:59;;;;;;;22.73;13.33;;;;;;;3.04;88.93;96154.25;1676711;86;21033;-61
2021/12/31 00:12:22;;;;;;;26.47;14.60;;;;;;;2.98;88.44;96152.84;1676810;86;21520;-61
2021/12/31 00:14:48;;;;;;;28.20;16.07;;;;;;;2.98;88.53;96160.23;1677102;86;21039;-61
2021/12/31 00:17:15;;;;;;;25.13;16.13;;;;;;;3.07;88.93;96158.22;1676745;86;21516;-61
2021/12/31 00:19:44;;;;;;;27.23;16.20;;;;;;;3.11;88.65;96164.38;1674279;86;21047;-61
2021/12/31 00:24:54;;;;;;;26.83;16.13;;;;;;;3.09;88.35;96163.04;1676902;86;20975;-61
2021/12/31 00:27:21;;;;;;;27.40;16.17;;;;;;;3.19;88.85;96165.41;1674455;86;20990;-61
2021/12/31 00:29:48;;;;;;;22.80;14.57;;;;;;;3.17;88.34;96154.06;1651499;86;21517;-61
2021/12/31 00:32:14;;;;;;;30.30;17.27;;;;;;;3.14;88.09;96152.70;1676835;86;21473;-61
2021/12/31 00:34:41;;;;;;;26.37;17.00;;;;;;;3.08;88.01;96153.91;1676821;86;21020;-61
2021/12/31 00:37:07;;;;;;;24.07;15.43;;;;;;;3.07;88.30;96146.91;1676716;86;21533;-61
2021/12/31 00:39:33;;;;;;;21.30;13.73;;;;;;;3.10;88.14;96140.05;1676931;86;21079;-61
2021/12/31 00:42:00;;;;;;;22.43;14.83;;;;;;;3.11;88.32;96120.06;1676782;85;21082;-61
2021/12/31 00:44:26;;;;;;;21.83;13.87;;;;;;;3.17;88.56;96111.03;1677038;85;21042;-61
2021/12/31 00:46:53;;;;;;;24.60;16.07;;;;;;;3.24;88.32;96115.08;1677091;86;21003;-61
2021/12/31 00:49:19;;;;;;;29.30;17.30;;;;;;;3.28;88.53;96119.95;1676941;86;21520;-61
2021/12/31 00:51:46;;;;;;;29.57;17.83;;;;;;;3.36;88.69;96127.47;1676986;85;21035;-61
2021/12/31 00:54:13;;;;;;;29.30;18.47;;;;;;;3.41;88.82;96123.22;1676939;86;21512;-61
2021/12/31 00:56:39;;;;;;;29.80;17.60;;;;;;;3.46;88.75;96124.61;1676941;85;21074;-61
2021/12/31 00:59:06;;;;;;;29.50;18.00;;;;;;;3.42;88.20;96127.57;1676942;86;21031;-61
2021/12/31 01:01:35;;;;;;;26.63;17.37;;;;;;;3.36;87.92;96128.78;1677067;86;21014;-61
2021/12/31 01:04:01;;;;;;;26.73;16.67;;;;;;;3.42;88.13;96133.22;1677016;85;21106;-61
2021/12/31 01:06:27;;;;;;;28.40;16.80;;;;;;;3.35;87.83;96130.95;1676999;85;21488;-61
2021/12/31 01:08:54;;;;;;;20.77;12.93;;;;;;;3.31;87.65;96119.99;1677108;85;21054;-61
2021/12/31 01:11:20;;;;;;;23.73;14.73;;;;;;;3.24;87.24;96120.73;1677001;86;21022;-61
2021/12/31 01:13:55;;;;;;;30.00;17.03;;;;;;;3.10;87.19;96115.28;1677017;85;21565;-61
2021/12/31 01:16:19;;;;;;;26.17;15.73;;;;;;;3.04;87.34;96125.58;1677059;84;21003;-61
2021/12/31 01:21:21;;;;;;;24.13;15.07;;;;;;;2.98;87.91;96121.56;1677015;85;21109;-61
2021/12/31 01:23:49;;;;;;;23.97;15.13;;;;;;;2.96;88.10;96128.47;1677039;86;21019;-61
2021/12/31 01:26:16;;;;;;;26.00;15.57;;;;;;;2.94;87.89;96122.34;1676888;85;21026;-61
2021/12/31 01:28:43;;;;;;;28.70;16.23;;;;;;;2.92;87.92;96117.08;1677199;86;21070;-61
2021/12/31 01:31:10;;;;;;;26.63;15.47;;;;;;;2.95;87.93;96124.11;1677055;86;21060;-61
2021/12/31 01:33:37;;;;;;;23.00;14.57;;;;;;;2.98;88.05;96115.05;1676861;85;21050;-61
2021/12/31 01:36:05;;;;;;;26.43;15.87;;;;;;;3.00;88.01;96118.13;1676971;86;20975;-61
2021/12/31 01:38:34;;;;;;;26.50;15.50;;;;;;;3.02;87.99;96110.32;1676928;86;21010;-61
2021/12/31 01:41:01;;;;;;;23.03;15.30;;;;;;;3.04;88.19;96112.11;1676652;84;21497;-61
2021/12/31 01:43:27;;;;;;;23.63;15.50;;;;;;;3.08;88.22;96110.45;1676780;86;21082;-61
2021/12/31 01:45:59;;;;;;;24.70;15.07;;;;;;;3.16;88.74;96108.86;1676658;86;21042;-61
2021/12/31 01:48:36;;;;;;;26.77;15.40;;;;;;;3.22;88.61;96098.95;1676745;86;21074;-61
2021/12/31 01:51:02;;;;;;;25.03;14.97;;;;;;;3.20;88.25;96095.44;1677135;86;21450;-61
2021/12/31 01:53:31;;;;;;;26.27;15.97;;;;;;;3.22;88.30;96095.91;1676577;86;21426;-61
2021/12/31 01:56:00;;;;;;;27.30;15.77;;;;;;;3.19;88.20;96089.34;1676715;86;21005;-61
2021/12/31 01:58:28;;;;;;;26.23;15.10;;;;;;;3.23;88.53;96094.21;1676687;86;21552;-61
2021/12/31 02:00:55;;;;;;;28.50;16.53;;;;;;;3.29;88.62;96081.70;1676632;86;21031;-61
2021/12/31 02:03:24;;;;;;;27.87;16.33;;;;;;;3.31;88.80;96086.09;1676668;86;21090;-62
2021/12/31 02:05:50;;;;;;;25.73;15.07;;;;;;;3.36;88.71;96078.34;1676685;86;21030;-61
2021/12/31 02:08:18;;;;;;;24.63;15.20;;;;;;;3.41;88.73;96077.56;1676414;86;21549;-61
2021/12/31 02:10:50;;;;;;;24.07;14.80;;;;;;;3.46;88.84;96076.34;1676657;86;21038;-61
2021/12/31 02:13:21;;;;;;;26.40;15.03;;;;;;;3.44;88.27;96070.22;1676637;86;21090;-61
2021/12/31 02:15:48;;;;;;;27.27;15.70;;;;;;;3.50;88.70;96069.44;1676617;86;21078;-62
2021/12/31 02:18:14;;;;;;;28.40;15.53;;;;;;;3.53;88.68;96066.47;1676731;86;21054;-61
2021/12/31 02:20:45;;;;;;;24.20;14.47;;;;;;;3.52;88.36;96062.52;1676572;86;21014;-61
2021/12/31 02:23:20;;;;;;;25.17;14.10;;;;;;;3.59;88.41;96061.77;1676334;86;21104;-61
2021/12/31 02:25:46;;;;;;;25.67;14.13;;;;;;;3.55;87.93;96060.81;1676722;86;21006;-60
2021/12/31 02:28:13;;;;;;;24.23;14.43;;;;;;;3.50;87.70;96055.08;1676735;86;21039;-61
2021/12/31 02:30:40;;;;;;;24.00;14.53;;;;;;;3.47;88.03;96059.39;1676949;86;21516;-60
2021/12/31 02:33:07;;;;;;;22.30;13.70;;;;;;;3.56;88.56;96052.16;1676997;86;21089;-61
2021/12/31 02:35:34;;;;;;;21.60;13.90;;;;;;;3.63;88.80;96051.41;1676619;86;21509;-60
2021/12/31 02:38:03;;;;;;;22.73;14.47;;;;;;;3.72;88.74;96057.17;1676655;86;21035;-61
2021/12/31 02:40:31;;;;;;;25.43;14.27;;;;;;;3.68;88.01;96057.57;1676607;85;20999;-60
2021/12/31 02:42:59;;;;;;;22.10;13.73;;;;;;;3.67;87.82;96058.84;1676654;86;21134;-61
2021/12/31 02:45:34;;;;;;;23.77;14.47;;;;;;;3.61;87.75;96058.76;1676721;86;21045;-60
2021/12/31 02:48:02;;;;;;;23.90;14.03;;;;;;;3.63;88.13;96055.31;1676873;86;21047;-60
2021/12/31 02:50:34;;;;;;;24.00;14.83;;;;;;;3.63;87.97;96055.75;1676700;84;21051;-60
2021/12/31 02:53:11;;;;;;;22.82;13.62;;;;;;;3.62;88.31;96051.37;1676763;86;21094;-60
2021/12/31 02:55:41;;;;;;;21.53;13.27;;;;;;;3.60;87.92;96059.19;1676761;86;21007;-61
2021/12/31 02:58:09;;;;;;;22.07;12.63;;;;;;;3.56;87.98;96060.42;1676596;86;21159;-60
2021/12/31 03:00:40;;;;;;;20.67;13.23;;;;;;;3.55;87.96;96057.34;1676660;86;21043;-60
2021/12/31 03:03:08;;;;;;;23.47;14.00;;;;;;;3.50;87.96;96048.56;1676764;86;21011;-60
2021/12/31 03:05:36;;;;;;;22.93;13.97;;;;;;;3.47;88.05;96053.30;1676601;86;21030;-60
2021/12/31 03:08:06;;;;;;;23.23;13.50;;;;;;;3.43;88.01;96057.61;1676662;86;21029;-61
2021/12/31 03:10:34;;;;;;;20.07;13.53;;;;;;;3.36;87.89;96054.88;1674205;86;21094;-60
2021/12/31 03:13:02;;;;;;;20.07;12.63;;;;;;;3.32;87.84;96050.02;1676477;86;21528;-60
2021/12/31 03:15:29;;;;;;;23.57;13.20;;;;;;;3.31;88.16;96056.53;1676500;86;21034;-61
2021/12/31 03:18:02;;;;;;;21.63;13.17;;;;;;;3.30;88.25;96053.05;1676773;86;21036;-61
2021/12/31 03:20:36;;;;;;;24.73;13.33;;;;;;;3.25;88.12;96054.67;1676839;86;21094;-62
2021/12/31 03:22:56;;;;;;;24.27;14.43;;;;;;;3.21;88.45;96047.66;1676821;86;21050;-61
2021/12/31 03:25:22;;;;;;;26.40;15.40;;;;;;;3.18;88.52;96048.92;1676750;86;21026;-61
2021/12/31 03:27:48;;;;;;;24.60;15.07;;;;;;;3.16;88.54;96051.49;1676881;86;21038;-62
2021/12/31 03:30:17;;;;;;;26.30;15.57;;;;;;;3.16;88.71;96042.80;1676867;86;21517;-61
2021/12/31 03:32:43;;;;;;;25.23;15.57;;;;;;;3.11;88.92;96059.66;1676743;86;21094;-61
2021/12/31 03:35:10;;;;;;;25.00;15.80;;;;;;;3.12;89.03;96053.58;1676843;86;21057;-62
2021/12/31 03:37:37;;;;;;;27.43;16.90;;;;;;;3.16;89.32;96043.67;1676855;86;21059;-62
2021/12/31 03:40:05;;;;;;;27.50;15.67;;;;;;;3.16;88.97;96040.19;1676406;86;21055;-61
2021/12/31 03:42:32;;;;;;;27.07;16.13;;;;;;;3.14;89.09;96035.38;1677043;84;21047;-61
2021/12/31 03:45:00;;;;;;;24.90;15.40;;;;;;;3.16;89.14;96045.41;1677285;86;21058;-62
2021/12/31 03:47:27;;;;;;;28.13;15.83;;;;;;;3.21;89.47;96048.97;1676980;86;21035;-61
2021/12/31 03:49:53;;;;;;;28.47;15.30;;;;;;;3.20;89.40;96052.02;1676989;86;21573;-61
2021/12/31 03:52:20;;;;;;;28.33;17.17;;;;;;;3.25;89.49;96050.36;1677044;85;21042;-61
2021/12/31 03:54:46;;;;;;;27.87;17.00;;;;;;;3.33;89.72;96044.40;1677142;85;21496;-62
2021/12/31 03:57:13;;;;;;;28.57;16.37;;;;;;;3.39;89.86;96044.48;1677100;86;21094;-62
2021/12/31 03:59:39;;;;;;;28.83;16.30;;;;;;;3.45;89.81;96033.73;1676876;86;21097;-61
2021/12/31 04:02:06;;;;;;;27.13;15.70;;;;;;;3.40;89.32;96032.78;1677122;86;20978;-61
2021/12/31 04:04:32;;;;;;;29.60;18.20;;;;;;;3.37;89.37;96037.05;1676952;85;21106;-61
2021/12/31 04:06:59;;;;;;;30.03;18.07;;;;;;;3.43;89.65;96038.05;1677002;86;21022;-61
2021/12/31 04:09:25;;;;;;;30.10;17.63;;;;;;;3.45;89.32;96036.34;1677190;86;21062;-61
2021/12/31 04:11:52;;;;;;;30.33;18.87;;;;;;;3.51;89.66;96030.34;1677106;86;21054;-61
2021/12/31 04:14:18;;;;;;;29.13;17.80;;;;;;;3.51;89.29;96021.64;1677146;86;21038;-61
2021/12/31 04:16:45;;;;;;;28.90;16.83;;;;;;;3.54;89.37;96024.29;1677116;86;21521;-61
2021/12/31 04:19:11;;;;;;;26.93;15.23;;;;;;;3.55;89.26;96017.77;1677135;85;21023;-62
2021/12/31 04:21:37;;;;;;;26.80;16.47;;;;;;;3.62;89.49;96017.45;1676962;85;21469;-62
2021/12/31 04:24:13;;;;;;;25.67;14.93;;;;;;;3.64;89.27;96018.35;1677150;86;21537;-61
2021/12/31 04:26:33;;;;;;;27.97;16.50;;;;;;;3.68;89.25;96013.20;1654964;86;21591;-62
2021/12/31 04:29:00;;;;;;;25.50;15.77;;;;;;;3.63;88.84;96022.70;1677052;85;21038;-61
2021/12/31 04:31:27;;;;;;;28.60;16.43;;;;;;;3.58;88.82;96029.58;1677074;86;21006;-61
2021/12/31 04:33:54;;;;;;;26.47;15.97;;;;;;;3.51;88.79;96025.55;1676969;86;21524;-61
2021/12/31 04:36:21;;;;;;;28.70;17.30;;;;;;;3.58;89.20;96029.58;1676740;86;21078;-61
2021/12/31 04:38:47;;;;;;;25.70;15.63;;;;;;;3.67;89.39;96032.31;1676944;86;21019;-61
2021/12/31 04:41:14;;;;;;;28.60;17.13;;;;;;;3.62;88.87;96033.97;1676910;85;20986;-61
2021/12/31 04:43:40;;;;;;;28.33;17.33;;;;;;;3.58;88.64;96031.29;1676730;86;21078;-61
2021/12/31 04:46:07;;;;;;;26.40;16.03;;;;;;;3.52;88.56;96024.25;1676914;86;21075;-61
2021/12/31 04:48:33;;;;;;;27.37;15.53;;;;;;;3.51;88.64;96026.42;1677062;86;21034;-62
2021/12/31 04:51:00;;;;;;;28.07;16.97;;;;;;;3.51;89.01;96033.38;1676375;86;21588;-61
2021/12/31 04:53:26;;;;;;;33.50;18.97;;;;;;;3.53;89.13;96034.25;1676800;86;21039;-61
2021/12/31 04:55:53;;;;;;;28.07;17.23;;;;;;;3.51;89.13;96038.59;1676346;86;21079;-61
2021/12/31 04:58:19;;;;;;;31.03;17.23;;;;;;;3.49;88.98;96037.69;1676807;86;21544;-61
2021/12/31 05:00:46;;;;;;;39.10;23.70;;;;;;;3.54;89.27;96039.51;1676495;86;21111;-61
2021/12/31 05:03:14;;;;;;;32.90;19.23;;;;;;;3.61;89.23;96047.02;1676719;86;21015;-62
2021/12/31 05:05:41;;;;;;;40.37;22.27;;;;;;;3.62;89.15;96041.80;1676621;86;21114;-61
2021/12/31 05:08:08;;;;;;;38.53;22.37;;;;;;;3.62;88.92;96038.32;1676829;86;21508;-61
2021/12/31 05:10:35;;;;;;;33.93;19.63;;;;;;;3.62;88.76;96048.76;1676654;86;21094;-61
2021/12/31 05:13:04;;;;;;;31.20;19.70;;;;;;;3.56;88.70;96040.41;1676793;86;21026;-61
2021/12/31 05:15:36;;;;;;;34.30;19.53;;;;;;;3.57;89.01;96045.20;1676726;86;21081;-62
2021/12/31 05:18:01;;;;;;;34.60;20.30;;;;;;;3.64;89.55;96044.02;1676760;86;21031;-61
2021/12/31 05:20:28;;;;;;;28.93;18.47;;;;;;;3.72;89.37;96034.99;1676355;86;21039;-61
2021/12/31 05:22:57;;;;;;;29.90;17.20;;;;;;;3.70;89.08;96044.52;1676664;86;21517;-62
2021/12/31 05:25:23;;;;;;;31.57;17.20;;;;;;;3.63;89.02;96044.01;1676840;86;21106;-61
2021/12/31 05:27:50;;;;;;;33.37;18.73;;;;;;;3.64;89.09;96041.41;1677017;86;20987;-61
2021/12/31 05:30:18;;;;;;;43.33;24.80;;;;;;;3.66;89.16;96037.52;1676789;86;21536;-61
2021/12/31 05:32:46;;;;;;;45.37;25.37;;;;;;;3.67;89.38;96033.61;1676387;86;21692;-61
2021/12/31 05:35:15;;;;;;;41.13;23.37;;;;;;;3.68;89.12;96035.83;1676569;86;21066;-61
2021/12/31 05:37:41;;;;;;;43.33;24.43;;;;;;;3.63;89.07;96036.19;1676760;86;21014;-62
2021/12/31 05:40:09;;;;;;;58.60;35.00;;;;;;;3.67;89.34;96039.27;1676695;86;21034;-61
2021/12/31 05:42:36;;;;;;;43.83;24.90;;;;;;;3.66;89.05;96036.22;1676730;85;21500;-61
2021/12/31 05:45:04;;;;;;;38.80;21.23;;;;;;;3.62;88.99;96047.02;1676818;86;21089;-61
2021/12/31 05:47:31;;;;;;;32.33;19.90;;;;;;;3.59;88.74;96046.98;1676967;85;21007;-61
2021/12/31 05:49:58;;;;;;;38.80;23.40;;;;;;;3.60;88.90;96048.75;1674877;84;21184;-61
2021/12/31 05:52:24;;;;;;;47.50;29.37;;;;;;;3.61;89.20;96041.80;1649443;87;21050;-61
2021/12/31 05:54:51;;;;;;;30.90;18.90;;;;;;;3.63;89.32;96051.84;1649389;87;21046;-61
2021/12/31 05:57:17;;;;;;;33.23;19.67;;;;;;;3.60;89.00;96048.75;1672636;86;21477;-61
2021/12/31 05:59:43;;;;;;;41.40;24.10;;;;;;;3.61;89.33;96055.72;1676752;85;21138;-61
2021/12/31 06:02:10;;;;;;;35.63;20.77;;;;;;;3.60;89.47;96055.28;1677042;85;21046;-61
2021/12/31 06:04:37;;;;;;;29.67;16.90;;;;;;;3.67;89.64;96070.58;1661607;85;21035;-61
2021/12/31 06:07:04;;;;;;;30.23;16.77;;;;;;;3.67;89.53;96070.58;1649470;87;21600;-61
2021/12/31 06:09:31;;;;;;;28.23;15.93;;;;;;;3.64;89.30;96072.72;1649562;87;21094;-61
2021/12/31 06:12:01;;;;;;;28.00;17.03;;;;;;;3.67;89.37;96073.19;1649566;87;21050;-61
2021/12/31 06:14:30;;;;;;;27.57;17.53;;;;;;;3.64;89.20;96073.15;1649457;87;21102;-61
2021/12/31 06:17:02;;;;;;;28.70;16.83;;;;;;;3.70;89.50;96078.45;1649846;87;21046;-61
2021/12/31 06:19:25;;;;;;;31.10;17.03;;;;;;;3.72;89.30;96083.28;1649693;87;21087;-61
2021/12/31 06:21:52;;;;;;;27.03;16.33;;;;;;;3.72;89.23;96085.02;1649452;87;21509;-61
2021/12/31 06:24:18;;;;;;;28.23;15.93;;;;;;;3.76;89.29;96082.91;1649697;87;21453;-61
2021/12/31 06:26:45;;;;;;;37.17;22.17;;;;;;;3.75;89.08;96087.23;1649639;87;21098;-61
2021/12/31 06:29:11;;;;;;;31.97;18.37;;;;;;;3.76;89.24;96086.40;1649495;87;21560;-61
2021/12/31 06:31:38;;;;;;;29.80;16.63;;;;;;;3.80;89.08;96096.45;1649329;87;21058;-61
2021/12/31 06:34:04;;;;;;;28.07;16.73;;;;;;;3.75;88.62;96109.84;1649671;87;21018;-62
2021/12/31 06:36:30;;;;;;;29.77;16.93;;;;;;;3.66;88.56;96102.33;1649342;87;21062;-61
2021/12/31 06:38:58;;;;;;;30.10;16.70;;;;;;;3.60;88.54;96110.08;1649641;87;21043;-61
2021/12/31 06:41:24;;;;;;;32.30;17.20;;;;;;;3.58;88.60;96106.95;1649459;87;21517;-61
2021/12/31 06:43:51;;;;;;;26.23;15.30;;;;;;;3.56;88.66;96112.59;1649445;86;21069;-61
2021/12/31 06:46:20;;;;;;;29.87;15.17;;;;;;;3.57;88.81;96118.26;1649462;87;21026;-61
2021/12/31 06:48:47;;;;;;;26.67;14.50;;;;;;;3.58;88.85;96116.09;1649072;87;21065;-61
2021/12/31 06:51:15;;;;;;;27.27;15.40;;;;;;;3.55;88.77;96114.73;1649403;87;21499;-61
2021/12/31 06:53:41;;;;;;;25.27;15.20;;;;;;;3.51;88.66;96112.52;1649443;87;21119;-61
2021/12/31 06:56:08;;;;;;;25.57;14.43;;;;;;;3.55;88.88;96110.39;1649142;87;21045;-61
2021/12/31 06:58:34;;;;;;;27.83;15.73;;;;;;;3.57;88.81;96103.47;1649548;87;21524;-61
2021/12/31 07:01:01;;;;;;;28.07;15.77;;;;;;;3.59;88.84;96100.47;1649647;87;21026;-61
2021/12/31 07:03:27;;;;;;;27.90;16.00;;;;;;;3.65;89.02;96100.59;1649455;87;21461;-61
2021/12/31 07:05:54;;;;;;;22.10;14.03;;;;;;;3.68;88.82;96093.23;1649488;87;21017;-61
2021/12/31 07:08:21;;;;;;;30.73;17.93;;;;;;;3.72;88.68;96079.80;1649236;87;21130;-61
2021/12/31 07:10:47;;;;;;;67.93;37.07;;;;;;;3.65;88.41;96080.11;1649468;87;21071;-61
2021/12/31 07:13:14;;;;;;;32.80;19.33;;;;;;;3.64;88.80;96075.77;1649596;87;21090;-61
2021/12/31 07:15:44;;;;;;;44.00;24.33;;;;;;;3.53;89.04;96070.78;1649409;87;21097;-61
2021/12/31 07:18:11;;;;;;;90.43;42.77;;;;;;;3.57;89.13;96068.25;1649323;87;21516;-61
2021/12/31 07:20:38;;;;;;;88.60;44.23;;;;;;;3.56;89.12;96076.94;1649450;87;20990;-61
2021/12/31 07:23:07;;;;;;;74.07;37.97;;;;;;;3.59;89.20;96082.20;1649230;87;21062;-61
2021/12/31 07:25:34;;;;;;;33.13;19.43;;;;;;;3.55;89.19;96086.91;1649498;87;21026;-61
2021/12/31 07:28:01;;;;;;;38.23;21.40;;;;;;;3.55;89.07;96094.73;1649531;87;21039;-61
2021/12/31 07:30:28;;;;;;;37.03;21.23;;;;;;;3.48;88.88;96090.30;1649361;87;21508;-61
2021/12/31 07:32:55;;;;;;;32.43;19.33;;;;;;;3.46;89.09;96088.08;1649614;87;21031;-61
2021/12/31 07:35:25;;;;;;;32.13;17.87;;;;;;;3.48;89.23;96086.39;1649558;87;21540;-61
2021/12/31 07:37:55;;;;;;;33.97;19.70;;;;;;;3.47;89.39;96088.09;1648529;86;21540;-61
2021/12/31 07:40:41;;;;;;;35.53;20.90;;;;;;;3.44;89.40;96090.66;1649561;87;21042;-61
2021/12/31 07:43:09;;;;;;;53.10;29.77;;;;;;;3.46;89.61;96085.47;1626681;88;21599;-61
2021/12/31 07:45:37;;;;;;;59.37;32.57;;;;;;;3.43;89.52;96085.00;1644928;87;21007;-61
2021/12/31 07:48:05;;;;;;;56.33;31.73;;;;;;;3.44;89.57;96084.56;1627059;88;21057;-61
2021/12/31 07:50:33;;;;;;;61.87;33.20;;;;;;;3.47;89.49;96078.95;1626855;88;21531;-63
2021/12/31 07:53:00;;;;;;;90.67;55.93;;;;;;;3.53;89.67;96078.61;1649287;87;21110;-61
2021/12/31 07:55:26;;;;;;;63.27;36.53;;;;;;;3.58;89.98;96082.17;1649455;87;21074;-61
2021/12/31 07:57:53;;;;;;;69.00;41.50;;;;;;;3.62;89.79;96082.68;1649515;87;21512;-61
2021/12/31 08:00:19;;;;;;;27.37;16.47;;;;;;;3.71;89.97;96088.48;1649415;87;21007;-61
2021/12/31 08:02:46;;;;;;;34.03;17.60;;;;;;;3.80;90.27;96084.27;1649515;87;21042;-61
2021/12/31 08:05:12;;;;;;;20.23;11.47;;;;;;;3.95;90.79;96087.54;1649620;87;21025;-61
2021/12/31 08:07:39;;;;;;;11.60;6.73;;;;;;;4.10;91.30;96080.36;1649298;87;21572;-61
2021/12/31 08:10:07;;;;;;;3.33;2.60;;;;;;;4.26;91.26;96071.89;1649617;87;21030;-61
2021/12/31 08:12:37;;;;;;;3.90;2.40;;;;;;;4.53;93.53;96073.96;1649325;87;21536;-61
2021/12/31 08:15:06;;;;;;;3.73;2.67;;;;;;;4.80;93.98;96070.38;1649642;87;21003;-61
2021/12/31 08:17:33;;;;;;;4.80;3.10;;;;;;;5.02;93.92;96074.98;1649495;87;21051;-61
2021/12/31 08:20:01;;;;;;;4.13;2.77;;;;;;;5.17;93.40;96084.29;1649586;87;21006;-61
2021/12/31 08:22:28;;;;;;;2.70;1.93;;;;;;;5.29;93.31;96074.79;1649196;87;21070;-61
2021/12/31 08:24:54;;;;;;;3.23;2.00;;;;;;;5.42;93.34;96081.92;1649885;87;21026;-61
2021/12/31 08:27:21;;;;;;;3.37;2.37;;;;;;;5.54;93.27;96082.00;1649046;87;21094;-61
2021/12/31 08:29:47;;;;;;;4.63;3.23;;;;;;;5.63;92.98;96079.91;1649534;87;21022;-61
2021/12/31 08:32:14;;;;;;;4.73;3.40;;;;;;;5.74;92.77;96084.78;1649504;87;21552;-61
2021/12/31 08:34:40;;;;;;;3.97;3.00;;;;;;;5.85;92.55;96093.62;1649276;87;21070;-61
2021/12/31 08:37:07;;;;;;;5.30;4.00;;;;;;;5.92;92.34;96095.86;1649264;87;21018;-61
2021/12/31 08:39:34;;;;;;;5.80;3.30;;;;;;;6.01;92.09;96093.32;1649523;87;21011;-61
2021/12/31 08:42:02;;;;;;;5.80;3.87;;;;;;;6.10;91.83;96097.77;1649403;87;21102;-61
2021/12/31 08:44:29;;;;;;;5.83;3.50;;;;;;;6.18;91.64;96093.45;1649698;86;21508;-61
2021/12/31 08:46:55;;;;;;;4.23;2.97;;;;;;;6.24;91.23;96096.09;1649735;87;21030;-61
2021/12/31 08:49:24;;;;;;;4.70;3.37;;;;;;;6.28;90.94;96094.38;1649571;87;21030;-60
2021/12/31 08:51:51;;;;;;;5.20;3.77;;;;;;;6.34;90.89;96093.53;1649789;87;21066;-61
2021/12/31 08:54:18;;;;;;;7.13;4.43;;;;;;;6.39;90.75;96094.44;1649621;87;21501;-61
2021/12/31 08:56:45;;;;;;;8.47;4.70;;;;;;;6.44;90.52;96092.72;1649380;87;21050;-61
2021/12/31 08:59:12;;;;;;;12.37;8.10;;;;;;;6.47;90.34;96103.22;1649835;87;21011;-61
2021/12/31 09:01:39;;;;;;;14.63;10.10;;;;;;;6.45;89.39;96097.98;1649302;87;21091;-61
2021/12/31 09:04:06;;;;;;;18.10;11.80;;;;;;;6.34;88.58;96104.89;1649609;87;21091;-61
2021/12/31 09:06:32;;;;;;;21.27;13.57;;;;;;;6.25;88.04;96094.38;1649272;87;21098;-61
2021/12/31 09:08:59;;;;;;;22.80;14.17;;;;;;;6.17;87.79;96097.35;1649557;87;21504;-61
2021/12/31 09:11:25;;;;;;;22.47;14.47;;;;;;;6.15;88.21;96101.30;1649892;87;21046;-61
2021/12/31 09:13:54;;;;;;;27.57;15.70;;;;;;;5.97;86.85;96099.42;1649894;87;21034;-61
2021/12/31 09:16:20;;;;;;;26.40;16.07;;;;;;;5.90;87.29;96104.58;1649569;87;21077;-61
2021/12/31 09:18:47;;;;;;;27.03;15.93;;;;;;;5.86;87.65;96098.41;1649473;87;21507;-61
2021/12/31 09:21:17;;;;;;;27.33;16.70;;;;;;;5.81;87.44;96106.67;1649503;87;21038;-61
2021/12/31 09:23:45;;;;;;;27.73;16.53;;;;;;;5.77;87.41;96099.64;1649573;87;21030;-61
2021/12/31 09:26:12;;;;;;;28.73;16.90;;;;;;;5.71;87.27;96095.23;1649601;87;21057;-61
2021/12/31 09:28:38;;;;;;;25.10;15.77;;;;;;;5.72;87.45;96093.48;1649564;87;21086;-61
2021/12/31 09:31:07;;;;;;;25.00;15.60;;;;;;;5.65;86.97;96091.27;1649377;87;21555;-61
2021/12/31 09:33:35;;;;;;;25.80;16.10;;;;;;;5.61;86.85;96086.86;1649653;87;21046;-61
2021/12/31 09:36:01;;;;;;;25.80;15.60;;;;;;;5.57;86.40;96089.91;1649876;87;21046;-61
2021/12/31 09:38:28;;;;;;;25.00;15.13;;;;;;;5.50;86.45;96089.40;1649345;87;21532;-61
2021/12/31 09:40:55;;;;;;;24.27;15.30;;;;;;;5.46;86.60;96083.67;1649479;87;21086;-61
2021/12/31 09:43:21;;;;;;;22.80;15.03;;;;;;;5.37;86.64;96084.48;1649298;87;21034;-61
2021/12/31 09:45:53;;;;;;;25.97;16.70;;;;;;;5.32;86.73;96080.08;1649451;87;21544;-61
2021/12/31 09:48:22;;;;;;;23.10;13.73;;;;;;;5.31;86.95;96092.70;1649688;87;21087;-62
2021/12/31 09:50:54;;;;;;;22.40;13.70;;;;;;;5.18;86.69;96089.08;1649510;87;21493;-61
2021/12/31 09:53:24;;;;;;;27.47;15.47;;;;;;;5.13;86.94;96089.03;1649473;87;21061;-61
2021/12/31 09:55:54;;;;;;;22.40;14.70;;;;;;;5.05;87.04;96082.84;1649606;87;21519;-61
2021/12/31 09:58:25;;;;;;;20.43;12.77;;;;;;;4.98;87.07;96082.33;1649577;87;21070;-61
2021/12/31 10:00:57;;;;;;;25.27;15.53;;;;;;;4.91;87.18;96085.73;1649831;87;21042;-61
2021/12/31 10:03:28;;;;;;;22.63;14.33;;;;;;;4.91;87.63;96073.56;1649605;87;21050;-61
2021/12/31 10:06:00;;;;;;;23.07;13.23;;;;;;;4.95;87.94;96067.92;1649570;87;21110;-61
2021/12/31 10:08:31;;;;;;;21.37;13.15;;;;;;;4.97;88.08;96074.05;1649614;87;21086;-61
2021/12/31 10:11:14;;;;;;;24.90;14.50;;;;;;;4.87;88.25;96073.07;1648295;86;21042;-61
2021/12/31 10:13:56;;;;;;;22.35;13.53;;;;;;;4.85;88.02;96077.40;1649591;87;21121;-61
2021/12/31 10:16:42;;;;;;;25.47;14.40;;;;;;;4.83;87.77;96075.19;1649717;87;20986;-61
2021/12/31 10:19:14;;;;;;;26.17;15.17;;;;;;;4.82;88.00;96083.03;1649692;87;21003;-61
2021/12/31 10:21:50;;;;;;;24.50;14.23;;;;;;;4.81;88.10;96099.13;1649629;87;21030;-61
2021/12/31 10:24:35;;;;;;;24.70;14.83;;;;;;;4.86;88.43;96079.14;1649641;87;21094;-61
2021/12/31 10:27:12;;;;;;;26.30;15.67;;;;;;;4.86;88.50;96087.42;1649486;87;21066;-61
2021/12/31 10:30:05;;;;;;;26.97;14.83;;;;;;;4.92;88.49;96086.20;1649700;87;21521;-61
2021/12/31 10:32:40;;;;;;;23.80;13.73;;;;;;;5.02;88.77;96095.03;1649513;86;21054;-61
2021/12/31 10:35:12;;;;;;;21.13;12.77;;;;;;;5.09;88.67;96090.28;1649794;86;21106;-61
2021/12/31 10:37:47;;;;;;;25.43;13.83;;;;;;;5.12;88.49;96093.83;1649644;87;21556;-61
2021/12/31 10:40:33;;;;;;;21.87;13.40;;;;;;;5.15;88.44;96096.47;1649511;87;21074;-61
2021/12/31 10:43:23;;;;;;;23.53;13.13;;;;;;;5.23;88.51;96086.52;1649429;86;21094;-61
2021/12/31 10:46:10;;;;;;;25.93;14.73;;;;;;;5.29;88.07;96078.72;1649456;87;21054;-61
2021/12/31 10:48:43;;;;;;;23.37;14.60;;;;;;;5.33;88.29;96081.82;1649249;87;21117;-63
2021/12/31 10:51:16;;;;;;;20.55;12.95;;;;;;;5.37;88.33;96079.25;1649476;87;21089;-61
2021/12/31 10:53:50;;;;;;;21.68;13.93;;;;;;;5.38;87.69;96075.76;1649168;87;21030;-61
2021/12/31 10:56:14;;;;;;;23.57;14.03;;;;;;;5.43;87.92;96081.91;1649195;87;21061;-61
2021/12/31 10:58:44;;;;;;;21.20;13.20;;;;;;;5.53;88.38;96077.64;1649327;87;21105;-61
2021/12/31 11:01:14;;;;;;;23.63;14.53;;;;;;;5.59;87.78;96077.70;1649221;87;21038;-61
2021/12/31 11:03:42;;;;;;;25.47;16.00;;;;;;;5.57;87.51;96080.74;1649435;87;21098;-61
2021/12/31 11:06:13;;;;;;;27.73;16.53;;;;;;;5.52;87.14;96082.44;1649317;87;21113;-61
2021/12/31 11:08:49;;;;;;;24.70;15.63;;;;;;;5.45;87.00;96080.63;1649480;87;21034;-61
2021/12/31 11:11:14;;;;;;;28.17;15.90;;;;;;;5.39;87.08;96068.37;1648555;86;21046;-61
2021/12/31 11:13:41;;;;;;;23.37;14.70;;;;;;;5.42;87.33;96072.76;1649613;87;21111;-61
2021/12/31 11:16:09;;;;;;;25.10;15.60;;;;;;;5.40;87.20;96071.86;1649131;87;21532;-61
2021/12/31 11:18:36;;;;;;;23.83;15.17;;;;;;;5.48;87.87;96070.18;1649499;87;21524;-61
2021/12/31 11:21:05;;;;;;;26.33;15.50;;;;;;;5.55;87.33;96072.43;1649312;87;21071;-61
2021/12/31 11:23:32;;;;;;;28.23;17.73;;;;;;;5.51;86.99;96061.04;1649152;87;21034;-61
2021/12/31 11:26:05;;;;;;;26.63;16.27;;;;;;;5.55;87.05;96056.72;1649067;87;21027;-62
2021/12/31 11:28:39;;;;;;;28.92;17.45;;;;;;;5.63;87.16;96051.98;1649547;87;21022;-64
2021/12/31 11:31:22;;;;;;;26.47;16.33;;;;;;;5.73;87.27;96052.06;1649091;87;21094;-61
2021/12/31 11:34:08;;;;;;;25.95;16.07;;;;;;;5.92;87.60;96039.96;1649632;87;21509;-61
2021/12/31 11:36:40;;;;;;;27.97;16.87;;;;;;;6.05;87.21;96039.23;1649481;87;21050;-61